BrazilFixed distance
Super Maratona de Nova Friburgo
23 May2010
Distance
50km
Finishers
9181 men10 women
Winning time
3:23:39h
Median pace
9.52km/h
Pace distribution
91 finishers · 7.88–14.73 km/h · mean 10.25
Every finisher ran the same 50 km course, so these paces are directly comparable.
Histogram of finisher pace. 91 finishers ranged from 7.88 to 14.73 kilometres per hour, with a mean of 10.25 and a median of 9.52. The busiest band is 8.5 to 9.0 kilometres per hour, with 16 finishers.
Results
Ranks 1–50 of 91
| Rank | Runner | Time | Pace | Cat. | Placing |
|---|---|---|---|---|---|
| 1 | Equipe Cadence | 3:23:39h | 14.73 | M35 | 1st M · 1st M35 |
| 2 | 3:33:10h | 14.07 | M23 | 2nd M · 1st M23 | |
| 3 | 3:39:04h | 13.69 | M40 | 3rd M · 1st M40 | |
| 4 | 3:40:14h | 13.62 | — | 4th M | |
| 5 | 3:40:44h | 13.59 | M35 | 5th M · 2nd M35 | |
| 6 | Ultrandrade | 3:40:48h | 13.59 | M40 | 6th M · 2nd M40 |
| 7 | 3:42:02h | 13.51 | — | 7th M | |
| 8 | Sulcarioca | 3:42:43h | 13.47 | — | 8th M |
| 9 | 3:44:23h | 13.37 | M45 | 9th M · 1st M45 | |
| 10 | 3:48:31h | 13.13 | M45 | 10th M · 2nd M45 | |
| 11 | 3:55:26h | 12.74 | M35 | 11th M · 3rd M35 | |
| 12 | Avulso | 3:55:36h | 12.73 | M23 | 12th M · 2nd M23 |
| 13 | 3:57:00h | 12.66 | M45 | 13th M · 3rd M45 | |
| 14 | Policia Militar Minas ... | 4:03:20h | 12.33 | M23 | 14th M · 3rd M23 |
| 15 | 4:04:25h | 12.27 | M40 | 15th M · 3rd M40 | |
| 16 | Avulso | 4:06:47h | 12.16 | M45 | 16th M · 4th M45 |
| 17 | Equipe Dez | 4:07:51h | 12.10 | M35 | 17th M · 4th M35 |
| 18 | Acoruja | 4:10:25h | 11.98 | M40 | 18th M · 4th M40 |
| 19 | 4:12:45h | 11.87 | M40 | 19th M · 5th M40 | |
| 20 | Marcus Peixoto Assesso... | 4:13:04h | 11.86 | M23 | 20th M · 4th M23 |
| 21 | 4:15:11h | 11.76 | — | 21st M | |
| 22 | 4:15:26h | 11.74 | M35 | 22nd M · 5th M35 | |
| 23 | Sulcarioca | 4:16:12h | 11.71 | M40 | 23rd M · 6th M40 |
| 24 | Ascof | 4:19:05h | 11.58 | M35 | 24th M · 6th M35 |
| 25 | 4:20:31h | 11.52 | W40 | 1st F · 1st W40 | |
| 26 | 4:20:44h | 11.51 | M45 | 25th M · 5th M45 | |
| 27 | 4:23:22h | 11.39 | W40 | 2nd F · 2nd W40 | |
| 28 | 4:26:11h | 11.27 | M23 | 26th M · 5th M23 | |
| 29 | Acoruja | 4:27:08h | 11.23 | — | 27th M |
| 30 | Acorja - Recife | 4:29:50h | 11.12 | M40 | 28th M · 7th M40 |
| 31 | Sulcarioca | 4:31:25h | 11.05 | M45 | 29th M · 6th M45 |
| 32 | 4:33:09h | 10.98 | M45 | 30th M · 7th M45 | |
| 33 | Associacao dos Oficiais | 4:36:12h | 10.86 | M45 | 31st M · 8th M45 |
| 34 | 4:37:55h | 10.79 | M35 | 32nd M · 7th M35 | |
| 35 | 4:39:37h | 10.73 | W35 | 3rd F · 1st W35 | |
| 36 | 4:46:36h | 10.47 | — | 33rd M | |
| 37 | 4:47:10h | 10.45 | M23 | 34th M · 6th M23 | |
| 38 | 4:48:28h | 10.40 | W23 | 4th F · 1st W23 | |
| 39 | 4:48:42h | 10.39 | — | 35th M | |
| 40 | 4:49:21h | 10.37 | W40 | 5th F · 3rd W40 | |
| 41 | Libra Telecom | 4:51:28h | 10.29 | M23 | 36th M · 7th M23 |
| 42 | 4:54:58h | 10.17 | M40 | 37th M · 8th M40 | |
| 43 | 5:10:27h | 9.66 | M60 | 38th M · 1st M60 | |
| 44 | 5:10:43h | 9.65 | M45 | 39th M · 9th M45 | |
| 45 | Ascof | 5:12:41h | 9.59 | M50 | 40th M · 1st M50 |
| 46 | 5:15:13h | 9.52 | M55 | 41st M · 1st M55 | |
| 47 | Uff | 5:15:46h | 9.50 | — | 42nd M |
| 48 | 5:16:50h | 9.47 | M40 | 43rd M · 9th M40 | |
| 49 | 5:18:43h | 9.41 | M35 | 44th M · 8th M35 | |
| 50 | 5:18:48h | 9.41 | — | 45th M |
- 1Equipe Cadence1st M · 1st M35Time3:23:39hPace14.73Cat.M35
- 22nd M · 1st M23Time3:33:10hPace14.07Cat.M23
- 33rd M · 1st M40Time3:39:04hPace13.69Cat.M40
- 44th MTime3:40:14hPace13.62
- 55th M · 2nd M35Time3:40:44hPace13.59Cat.M35
- 6Ultrandrade6th M · 2nd M40Time3:40:48hPace13.59Cat.M40
- 77th MTime3:42:02hPace13.51
- 8Sulcarioca8th MTime3:42:43hPace13.47
- 99th M · 1st M45Time3:44:23hPace13.37Cat.M45
- 1010th M · 2nd M45Time3:48:31hPace13.13Cat.M45
- 1111th M · 3rd M35Time3:55:26hPace12.74Cat.M35
- 12Avulso12th M · 2nd M23Time3:55:36hPace12.73Cat.M23
- 1313th M · 3rd M45Time3:57:00hPace12.66Cat.M45
- 14Policia Militar Minas ...14th M · 3rd M23Time4:03:20hPace12.33Cat.M23
- 1515th M · 3rd M40Time4:04:25hPace12.27Cat.M40
- 16Avulso16th M · 4th M45Time4:06:47hPace12.16Cat.M45
- 17Equipe Dez17th M · 4th M35Time4:07:51hPace12.10Cat.M35
- 18Acoruja18th M · 4th M40Time4:10:25hPace11.98Cat.M40
- 1919th M · 5th M40Time4:12:45hPace11.87Cat.M40
- 20Marcus Peixoto Assesso...20th M · 4th M23Time4:13:04hPace11.86Cat.M23
- 2121st MTime4:15:11hPace11.76
- 2222nd M · 5th M35Time4:15:26hPace11.74Cat.M35
- 23Sulcarioca23rd M · 6th M40Time4:16:12hPace11.71Cat.M40
- 24Ascof24th M · 6th M35Time4:19:05hPace11.58Cat.M35
- 251st F · 1st W40Time4:20:31hPace11.52Cat.W40
- 2625th M · 5th M45Time4:20:44hPace11.51Cat.M45
- 272nd F · 2nd W40Time4:23:22hPace11.39Cat.W40
- 2826th M · 5th M23Time4:26:11hPace11.27Cat.M23
- 29Acoruja27th MTime4:27:08hPace11.23
- 30Acorja - Recife28th M · 7th M40Time4:29:50hPace11.12Cat.M40
- 31Sulcarioca29th M · 6th M45Time4:31:25hPace11.05Cat.M45
- 3230th M · 7th M45Time4:33:09hPace10.98Cat.M45
- 33Associacao dos Oficiais31st M · 8th M45Time4:36:12hPace10.86Cat.M45
- 3432nd M · 7th M35Time4:37:55hPace10.79Cat.M35
- 353rd F · 1st W35Time4:39:37hPace10.73Cat.W35
- 3633rd MTime4:46:36hPace10.47
- 3734th M · 6th M23Time4:47:10hPace10.45Cat.M23
- 384th F · 1st W23Time4:48:28hPace10.40Cat.W23
- 3935th MTime4:48:42hPace10.39
- 405th F · 3rd W40Time4:49:21hPace10.37Cat.W40
- 41Libra Telecom36th M · 7th M23Time4:51:28hPace10.29Cat.M23
- 4237th M · 8th M40Time4:54:58hPace10.17Cat.M40
- 4338th M · 1st M60Time5:10:27hPace9.66Cat.M60
- 4439th M · 9th M45Time5:10:43hPace9.65Cat.M45
- 45Ascof40th M · 1st M50Time5:12:41hPace9.59Cat.M50
- 4641st M · 1st M55Time5:15:13hPace9.52Cat.M55
- 47Uff42nd MTime5:15:46hPace9.50
- 4843rd M · 9th M40Time5:16:50hPace9.47Cat.M40
- 4944th M · 8th M35Time5:18:43hPace9.41Cat.M35
- 5045th MTime5:18:48hPace9.41
Showing ranks 1–50 of 91